sensor_id;sensor_type;location;lat;lon;timestamp;pressure;altitude;pressure_sealevel;temperature;humidity
18821;BME280;9539;59.332;18.034;2022-12-10T00:01:20;100608.97;;;-3.28;100.00
18821;BME280;9539;59.332;18.034;2022-12-10T00:03:47;100605.59;;;-3.42;100.00
18821;BME280;9539;59.332;18.034;2022-12-10T00:06:17;100601.94;;;-3.12;100.00
18821;BME280;9539;59.332;18.034;2022-12-10T00:08:44;100599.44;;;-3.26;100.00
18821;BME280;9539;59.332;18.034;2022-12-10T00:11:13;100587.31;;;-3.22;100.00
18821;BME280;9539;59.332;18.034;2022-12-10T00:13:40;100602.88;;;-3.24;100.00
18821;BME280;9539;59.332;18.034;2022-12-10T00:16:08;100604.69;;;-3.32;100.00
18821;BME280;9539;59.332;18.034;2022-12-10T00:18:37;100595.94;;;-3.22;100.00
18821;BME280;9539;59.332;18.034;2022-12-10T00:21:06;100603.72;;;-3.18;100.00
18821;BME280;9539;59.332;18.034;2022-12-10T00:23:35;100601.09;;;-3.15;100.00
18821;BME280;9539;59.332;18.034;2022-12-10T00:26:03;100596.75;;;-3.13;100.00
18821;BME280;9539;59.332;18.034;2022-12-10T00:28:30;100595.84;;;-3.09;100.00
18821;BME280;9539;59.332;18.034;2022-12-10T00:31:02;100602.97;;;-3.36;100.00
18821;BME280;9539;59.332;18.034;2022-12-10T00:33:29;100600.19;;;-3.07;100.00
18821;BME280;9539;59.332;18.034;2022-12-10T00:35:56;100604.47;;;-3.04;100.00
18821;BME280;9539;59.332;18.034;2022-12-10T00:38:22;100597.59;;;-3.08;100.00
18821;BME280;9539;59.332;18.034;2022-12-10T00:40:51;100605.38;;;-3.08;100.00
18821;BME280;9539;59.332;18.034;2022-12-10T00:43:17;100599.13;;;-2.86;100.00
18821;BME280;9539;59.332;18.034;2022-12-10T00:45:44;100597.34;;;-2.79;100.00
18821;BME280;9539;59.332;18.034;2022-12-10T00:48:11;100591.47;;;-3.00;100.00
18821;BME280;9539;59.332;18.034;2022-12-10T00:50:37;100599.31;;;-3.10;100.00
18821;BME280;9539;59.332;18.034;2022-12-10T00:53:04;100597.47;;;-2.98;100.00
18821;BME280;9539;59.332;18.034;2022-12-10T00:55:31;100593.03;;;-2.80;100.00
18821;BME280;9539;59.332;18.034;2022-12-10T00:58:00;100598.38;;;-2.99;100.00
18821;BME280;9539;59.332;18.034;2022-12-10T01:00:28;100590.56;;;-2.96;100.00
18821;BME280;9539;59.332;18.034;2022-12-10T01:02:54;100599.91;;;-2.73;100.00
18821;BME280;9539;59.332;18.034;2022-12-10T01:05:21;100599.91;;;-2.76;100.00
18821;BME280;9539;59.332;18.034;2022-12-10T01:07:50;100589.56;;;-2.81;100.00
18821;BME280;9539;59.332;18.034;2022-12-10T01:10:17;100600.13;;;-2.99;100.00
18821;BME280;9539;59.332;18.034;2022-12-10T01:12:44;100576.59;;;-2.83;100.00
18821;BME280;9539;59.332;18.034;2022-12-10T01:15:12;100597.25;;;-2.69;100.00
18821;BME280;9539;59.332;18.034;2022-12-10T01:17:39;100599.03;;;-2.75;100.00
18821;BME280;9539;59.332;18.034;2022-12-10T01:20:07;100595.63;;;-2.82;100.00
18821;BME280;9539;59.332;18.034;2022-12-10T01:22:34;100594.59;;;-2.61;100.00
18821;BME280;9539;59.332;18.034;2022-12-10T01:25:00;100594.59;;;-2.64;100.00
18821;BME280;9539;59.332;18.034;2022-12-10T01:27:27;100597.19;;;-2.63;100.00
18821;BME280;9539;59.332;18.034;2022-12-10T01:29:54;100598.16;;;-2.73;100.00
18821;BME280;9539;59.332;18.034;2022-12-10T01:32:23;100599.03;;;-2.75;100.00
18821;BME280;9539;59.332;18.034;2022-12-10T01:34:49;100597.31;;;-2.75;100.00
18821;BME280;9539;59.332;18.034;2022-12-10T01:37:16;100594.75;;;-2.79;100.00
18821;BME280;9539;59.332;18.034;2022-12-10T01:39:43;100602.38;;;-2.63;100.00
18821;BME280;9539;59.332;18.034;2022-12-10T01:42:12;100600.81;;;-2.79;100.00
18821;BME280;9539;59.332;18.034;2022-12-10T01:44:59;100604.16;;;-2.66;100.00
18821;BME280;9539;59.332;18.034;2022-12-10T01:47:28;100600.59;;;-2.58;100.00
18821;BME280;9539;59.332;18.034;2022-12-10T01:49:57;100603.91;;;-2.44;100.00
18821;BME280;9539;59.332;18.034;2022-12-10T01:52:24;100599.50;;;-2.34;100.00
18821;BME280;9539;59.332;18.034;2022-12-10T01:54:51;100603.00;;;-2.38;100.00
18821;BME280;9539;59.332;18.034;2022-12-10T01:57:21;100604.59;;;-2.26;100.00
18821;BME280;9539;59.332;18.034;2022-12-10T01:59:51;100605.56;;;-2.35;100.00
18821;BME280;9539;59.332;18.034;2022-12-10T02:02:24;100601.19;;;-2.30;100.00
18821;BME280;9539;59.332;18.034;2022-12-10T02:05:04;100610.69;;;-2.27;100.00
18821;BME280;9539;59.332;18.034;2022-12-10T02:07:42;100611.63;;;-2.36;100.00
18821;BME280;9539;59.332;18.034;2022-12-10T02:10:19;100607.38;;;-2.42;100.00
18821;BME280;9539;59.332;18.034;2022-12-10T02:12:54;100615.09;;;-2.34;100.00
18821;BME280;9539;59.332;18.034;2022-12-10T02:15:26;100611.78;;;-2.50;100.00
18821;BME280;9539;59.332;18.034;2022-12-10T02:17:56;100614.97;;;-2.26;100.00
18821;BME280;9539;59.332;18.034;2022-12-10T02:20:30;100609.81;;;-2.28;100.00
18821;BME280;9539;59.332;18.034;2022-12-10T02:23:01;100627.38;;;-2.50;100.00
18821;BME280;9539;59.332;18.034;2022-12-10T02:25:36;100625.63;;;-2.48;100.00
18821;BME280;9539;59.332;18.034;2022-12-10T02:28:12;100629.81;;;-2.34;100.00
18821;BME280;9539;59.332;18.034;2022-12-10T02:30:42;100627.22;;;-2.34;100.00
18821;BME280;9539;59.332;18.034;2022-12-10T02:33:11;100619.44;;;-2.34;100.00
18821;BME280;9539;59.332;18.034;2022-12-10T02:35:41;100619.34;;;-2.27;100.00
18821;BME280;9539;59.332;18.034;2022-12-10T02:38:11;100616.78;;;-2.33;100.00
18821;BME280;9539;59.332;18.034;2022-12-10T02:40:43;100617.69;;;-2.35;100.00
18821;BME280;9539;59.332;18.034;2022-12-10T02:43:13;100622.03;;;-2.36;100.00
18821;BME280;9539;59.332;18.034;2022-12-10T02:45:42;100615.16;;;-2.42;100.00
18821;BME280;9539;59.332;18.034;2022-12-10T02:48:11;100619.44;;;-2.37;100.00
18821;BME280;9539;59.332;18.034;2022-12-10T02:50:38;100626.09;;;-2.12;100.00
18821;BME280;9539;59.332;18.034;2022-12-10T02:53:05;100620.75;;;-2.00;100.00
18821;BME280;9539;59.332;18.034;2022-12-10T02:55:40;100624.09;;;-1.89;100.00
18821;BME280;9539;59.332;18.034;2022-12-10T02:58:15;100618.16;;;-1.98;100.00
18821;BME280;9539;59.332;18.034;2022-12-10T03:00:53;100617.25;;;-1.96;100.00
18821;BME280;9539;59.332;18.034;2022-12-10T03:03:33;100617.47;;;-2.14;100.00
18821;BME280;9539;59.332;18.034;2022-12-10T03:06:07;100611.34;;;-2.09;100.00
18821;BME280;9539;59.332;18.034;2022-12-10T03:08:41;100611.34;;;-2.09;100.00
18821;BME280;9539;59.332;18.034;2022-12-10T03:11:14;100616.72;;;-2.25;100.00
18821;BME280;9539;59.332;18.034;2022-12-10T03:13:47;100616.66;;;-2.19;100.00
18821;BME280;9539;59.332;18.034;2022-12-10T03:16:19;100610.63;;;-2.21;100.00
18821;BME280;9539;59.332;18.034;2022-12-10T03:18:50;100615.59;;;-2.02;100.00
18821;BME280;9539;59.332;18.034;2022-12-10T03:21:19;100617.13;;;-1.87;100.00
18821;BME280;9539;59.332;18.034;2022-12-10T03:23:47;100624.19;;;-1.95;100.00
18821;BME280;9539;59.332;18.034;2022-12-10T03:26:16;100627.59;;;-1.91;100.00
18821;BME280;9539;59.332;18.034;2022-12-10T03:28:46;100630.03;;;-1.76;100.00
18821;BME280;9539;59.332;18.034;2022-12-10T03:31:15;100628.53;;;-1.97;100.00
18821;BME280;9539;59.332;18.034;2022-12-10T03:33:43;100634.50;;;-1.89;100.00
18821;BME280;9539;59.332;18.034;2022-12-10T03:36:12;100632.78;;;-1.88;100.00
18821;BME280;9539;59.332;18.034;2022-12-10T03:38:40;100628.28;;;-1.77;100.00
18821;BME280;9539;59.332;18.034;2022-12-10T03:41:07;100632.88;;;-1.97;100.00
18821;BME280;9539;59.332;18.034;2022-12-10T03:43:33;100632.09;;;-2.07;100.00
18821;BME280;9539;59.332;18.034;2022-12-10T03:46:00;100628.41;;;-1.88;100.00
18821;BME280;9539;59.332;18.034;2022-12-10T03:48:27;100623.25;;;-1.91;100.00
18821;BME280;9539;59.332;18.034;2022-12-10T03:50:55;100616.19;;;-1.81;100.00
18821;BME280;9539;59.332;18.034;2022-12-10T03:53:22;100630.03;;;-1.79;100.00
18821;BME280;9539;59.332;18.034;2022-12-10T03:55:49;100626.66;;;-1.86;100.00
18821;BME280;9539;59.332;18.034;2022-12-10T03:58:15;100628.41;;;-1.88;100.00
18821;BME280;9539;59.332;18.034;2022-12-10T04:00:42;100632.00;;;-1.96;100.00
18821;BME280;9539;59.332;18.034;2022-12-10T04:03:09;100632.00;;;-1.95;100.00
18821;BME280;9539;59.332;18.034;2022-12-10T04:05:36;100625.91;;;-1.95;100.00
18821;BME280;9539;59.332;18.034;2022-12-10T04:08:05;100630.06;;;-1.81;100.00
18821;BME280;9539;59.332;18.034;2022-12-10T04:10:35;100630.19;;;-1.90;100.00
18821;BME280;9539;59.332;18.034;2022-12-10T04:13:02;100633.59;;;-1.85;100.00
18821;BME280;9539;59.332;18.034;2022-12-10T04:15:47;100629.19;;;-1.81;100.00
18821;BME280;9539;59.332;18.034;2022-12-10T04:18:33;100634.28;;;-1.71;100.00
18821;BME280;9539;59.332;18.034;2022-12-10T04:21:00;100625.56;;;-1.68;100.00
18821;BME280;9539;59.332;18.034;2022-12-10T04:23:45;100626.53;;;-1.75;100.00
18821;BME280;9539;59.332;18.034;2022-12-10T04:26:29;100625.69;;;-1.77;100.00
18821;BME280;9539;59.332;18.034;2022-12-10T04:29:14;100622.13;;;-1.70;100.00
18821;BME280;9539;59.332;18.034;2022-12-10T04:31:40;100626.50;;;-1.72;100.00
18821;BME280;9539;59.332;18.034;2022-12-10T04:34:07;100626.31;;;-1.58;100.00
18821;BME280;9539;59.332;18.034;2022-12-10T04:36:34;100630.66;;;-1.59;100.00
18821;BME280;9539;59.332;18.034;2022-12-10T04:39:02;100631.69;;;-1.72;100.00
18821;BME280;9539;59.332;18.034;2022-12-10T04:41:29;100628.22;;;-1.71;100.00
18821;BME280;9539;59.332;18.034;2022-12-10T04:43:56;100632.44;;;-1.63;100.00
18821;BME280;9539;59.332;18.034;2022-12-10T04:46:23;100635.00;;;-1.61;100.00
18821;BME280;9539;59.332;18.034;2022-12-10T04:48:49;100625.75;;;-1.82;100.00
18821;BME280;9539;59.332;18.034;2022-12-10T04:51:16;100625.88;;;-1.92;100.00
18821;BME280;9539;59.332;18.034;2022-12-10T04:53:43;100633.75;;;-2.00;100.00
18821;BME280;9539;59.332;18.034;2022-12-10T04:56:11;100632.72;;;-1.87;100.00
18821;BME280;9539;59.332;18.034;2022-12-10T04:58:38;100637.94;;;-1.87;100.00
18821;BME280;9539;59.332;18.034;2022-12-10T05:01:06;100631.66;;;-1.69;100.00
18821;BME280;9539;59.332;18.034;2022-12-10T05:03:33;100622.16;;;-1.73;100.00
18821;BME280;9539;59.332;18.034;2022-12-10T05:06:01;100623.19;;;-1.86;100.00
18821;BME280;9539;59.332;18.034;2022-12-10T05:08:28;100637.22;;;-1.98;100.00
18821;BME280;9539;59.332;18.034;2022-12-10T05:10:55;100632.63;;;-1.76;100.00
18821;BME280;9539;59.332;18.034;2022-12-10T05:13:23;100643.09;;;-1.82;100.00
18821;BME280;9539;59.332;18.034;2022-12-10T05:15:50;100642.25;;;-1.84;100.00
18821;BME280;9539;59.332;18.034;2022-12-10T05:18:17;100618.13;;;-1.95;100.00
18821;BME280;9539;59.332;18.034;2022-12-10T05:20:44;100640.38;;;-1.75;100.00
18821;BME280;9539;59.332;18.034;2022-12-10T05:23:10;100642.25;;;-1.86;100.00
18821;BME280;9539;59.332;18.034;2022-12-10T05:25:59;100633.56;;;-1.83;100.00
18821;BME280;9539;59.332;18.034;2022-12-10T05:28:28;100635.41;;;-1.91;100.00
18821;BME280;9539;59.332;18.034;2022-12-10T05:30:55;100644.00;;;-1.88;100.00
18821;BME280;9539;59.332;18.034;2022-12-10T05:33:22;100639.59;;;-1.80;100.00
18821;BME280;9539;59.332;18.034;2022-12-10T05:35:55;100643.81;;;-1.71;100.00
18821;BME280;9539;59.332;18.034;2022-12-10T05:38:22;100639.56;;;-1.78;100.00
18821;BME280;9539;59.332;18.034;2022-12-10T05:40:50;100648.09;;;-1.67;100.00
18821;BME280;9539;59.332;18.034;2022-12-10T05:43:17;100641.53;;;-1.97;100.00
18821;BME280;9539;59.332;18.034;2022-12-10T05:45:46;100653.66;;;-1.96;100.00
18821;BME280;9539;59.332;18.034;2022-12-10T05:48:15;100643.97;;;-1.83;100.00
18821;BME280;9539;59.332;18.034;2022-12-10T05:50:42;100641.59;;;-2.02;100.00
18821;BME280;9539;59.332;18.034;2022-12-10T05:53:09;100645.88;;;-1.97;100.00
18821;BME280;9539;59.332;18.034;2022-12-10T05:55:39;100647.53;;;-1.90;100.00
18821;BME280;9539;59.332;18.034;2022-12-10T05:58:07;100648.31;;;-1.84;100.00
18821;BME280;9539;59.332;18.034;2022-12-10T06:00:34;100648.31;;;-1.85;100.00
18821;BME280;9539;59.332;18.034;2022-12-10T06:03:02;100654.38;;;-1.82;100.00
18821;BME280;9539;59.332;18.034;2022-12-10T06:05:28;100649.31;;;-1.95;100.00
18821;BME280;9539;59.332;18.034;2022-12-10T06:07:55;100652.66;;;-1.86;100.00
18821;BME280;9539;59.332;18.034;2022-12-10T06:10:22;100654.47;;;-1.91;100.00
18821;BME280;9539;59.332;18.034;2022-12-10T06:12:49;100656.81;;;-1.70;100.00
18821;BME280;9539;59.332;18.034;2022-12-10T06:15:15;100660.13;;;-1.58;100.00
18821;BME280;9539;59.332;18.034;2022-12-10T06:17:42;100659.44;;;-1.74;100.00
18821;BME280;9539;59.332;18.034;2022-12-10T06:20:11;100667.22;;;-1.70;100.00
18821;BME280;9539;59.332;18.034;2022-12-10T06:22:38;100665.34;;;-1.62;100.00
18821;BME280;9539;59.332;18.034;2022-12-10T06:25:05;100667.78;;;-1.48;100.00
18821;BME280;9539;59.332;18.034;2022-12-10T06:27:32;100663.69;;;-1.67;100.00
18821;BME280;9539;59.332;18.034;2022-12-10T06:29:59;100658.66;;;-1.81;100.00
18821;BME280;9539;59.332;18.034;2022-12-10T06:32:26;100661.09;;;-1.66;100.00
18821;BME280;9539;59.332;18.034;2022-12-10T06:34:52;100665.66;;;-1.83;100.00
18821;BME280;9539;59.332;18.034;2022-12-10T06:37:21;100661.22;;;-1.76;100.00
18821;BME280;9539;59.332;18.034;2022-12-10T06:39:50;100661.34;;;-1.87;100.00
18821;BME280;9539;59.332;18.034;2022-12-10T06:42:17;100655.19;;;-1.80;100.00
18821;BME280;9539;59.332;18.034;2022-12-10T06:44:43;100653.38;;;-1.73;100.00
18821;BME280;9539;59.332;18.034;2022-12-10T06:47:10;100661.97;;;-1.68;100.00
18821;BME280;9539;59.332;18.034;2022-12-10T06:49:37;100654.56;;;-2.00;100.00
18821;BME280;9539;59.332;18.034;2022-12-10T06:52:04;100669.09;;;-1.82;100.00
18821;BME280;9539;59.332;18.034;2022-12-10T06:54:32;100667.38;;;-1.85;100.00
18821;BME280;9539;59.332;18.034;2022-12-10T06:56:59;100662.28;;;-1.94;100.00
18821;BME280;9539;59.332;18.034;2022-12-10T06:59:26;100674.25;;;-1.81;100.00
18821;BME280;9539;59.332;18.034;2022-12-10T07:01:53;100667.41;;;-1.86;100.00
18821;BME280;9539;59.332;18.034;2022-12-10T07:04:20;100667.47;;;-1.92;100.00
18821;BME280;9539;59.332;18.034;2022-12-10T07:06:47;100670.00;;;-1.86;100.00
18821;BME280;9539;59.332;18.034;2022-12-10T07:09:13;100675.91;;;-1.72;100.00
18821;BME280;9539;59.332;18.034;2022-12-10T07:11:42;100669.03;;;-1.78;100.00
18821;BME280;9539;59.332;18.034;2022-12-10T07:14:11;100672.19;;;-1.51;100.00
18821;BME280;9539;59.332;18.034;2022-12-10T07:16:40;100673.28;;;-1.71;100.00
18821;BME280;9539;59.332;18.034;2022-12-10T07:19:09;100669.03;;;-1.76;100.00
18821;BME280;9539;59.332;18.034;2022-12-10T07:21:37;100672.59;;;-1.83;100.00
18821;BME280;9539;59.332;18.034;2022-12-10T07:24:07;100676.06;;;-1.84;100.00
18821;BME280;9539;59.332;18.034;2022-12-10T07:26:36;100677.63;;;-1.70;100.00
18821;BME280;9539;59.332;18.034;2022-12-10T07:29:05;100683.78;;;-1.78;100.00
18821;BME280;9539;59.332;18.034;2022-12-10T07:31:33;100683.78;;;-1.80;100.00
18821;BME280;9539;59.332;18.034;2022-12-10T07:33:59;100682.13;;;-1.84;100.00
18821;BME280;9539;59.332;18.034;2022-12-10T07:36:26;100688.13;;;-1.77;100.00
18821;BME280;9539;59.332;18.034;2022-12-10T07:38:54;100689.78;;;-1.73;100.00
18821;BME280;9539;59.332;18.034;2022-12-10T07:41:21;100682.13;;;-1.85;100.00
18821;BME280;9539;59.332;18.034;2022-12-10T07:43:49;100695.78;;;-1.67;100.00
18821;BME280;9539;59.332;18.034;2022-12-10T07:46:19;100696.13;;;-1.95;100.00
18821;BME280;9539;59.332;18.034;2022-12-10T07:48:46;100691.00;;;-2.03;100.00
18821;BME280;9539;59.332;18.034;2022-12-10T07:51:14;100693.41;;;-1.88;100.00
18821;BME280;9539;59.332;18.034;2022-12-10T07:53:42;100688.13;;;-1.79;100.00
18821;BME280;9539;59.332;18.034;2022-12-10T07:56:09;100694.09;;;-1.69;100.00
18821;BME280;9539;59.332;18.034;2022-12-10T07:58:36;100695.84;;;-1.73;100.00
18821;BME280;9539;59.332;18.034;2022-12-10T08:01:06;100703.66;;;-1.74;100.00
18821;BME280;9539;59.332;18.034;2022-12-10T08:03:35;100696.72;;;-1.71;100.00
18821;BME280;9539;59.332;18.034;2022-12-10T08:06:03;100693.03;;;-1.54;100.00
18821;BME280;9539;59.332;18.034;2022-12-10T08:08:32;100696.41;;;-1.48;100.00
18821;BME280;9539;59.332;18.034;2022-12-10T08:10:59;100695.44;;;-1.39;100.00
18821;BME280;9539;59.332;18.034;2022-12-10T08:13:27;100704.13;;;-1.42;100.00
18821;BME280;9539;59.332;18.034;2022-12-10T08:15:53;100701.78;;;-1.62;100.00
18821;BME280;9539;59.332;18.034;2022-12-10T08:18:20;100696.56;;;-1.60;100.00
18821;BME280;9539;59.332;18.034;2022-12-10T08:20:48;100701.72;;;-1.55;100.00
18821;BME280;9539;59.332;18.034;2022-12-10T08:23:15;100700.66;;;-1.39;100.00
18821;BME280;9539;59.332;18.034;2022-12-10T08:25:42;100696.34;;;-1.42;100.00
18821;BME280;9539;59.332;18.034;2022-12-10T08:28:09;100699.78;;;-1.38;100.00
18821;BME280;9539;59.332;18.034;2022-12-10T08:30:35;100700.84;;;-1.54;100.00
18821;BME280;9539;59.332;18.034;2022-12-10T08:33:02;100702.47;;;-1.46;100.00
18821;BME280;9539;59.332;18.034;2022-12-10T08:35:29;100698.84;;;-1.36;100.00
18821;BME280;9539;59.332;18.034;2022-12-10T08:37:57;100701.75;;;-1.57;100.00
18821;BME280;9539;59.332;18.034;2022-12-10T08:40:24;100700.72;;;-1.44;100.00
18821;BME280;9539;59.332;18.034;2022-12-10T08:42:51;100700.88;;;-1.57;100.00
18821;BME280;9539;59.332;18.034;2022-12-10T08:45:18;100701.69;;;-1.52;100.00
18821;BME280;9539;59.332;18.034;2022-12-10T08:47:45;100709.59;;;-1.62;100.00
18821;BME280;9539;59.332;18.034;2022-12-10T08:50:11;100713.75;;;-1.47;100.00
18821;BME280;9539;59.332;18.034;2022-12-10T08:52:38;100711.06;;;-1.38;100.00
18821;BME280;9539;59.332;18.034;2022-12-10T08:55:07;100712.72;;;-1.34;100.00
18821;BME280;9539;59.332;18.034;2022-12-10T08:57:34;100719.66;;;-1.33;100.00
18821;BME280;9539;59.332;18.034;2022-12-10T09:00:02;100711.84;;;-1.33;100.00
18821;BME280;9539;59.332;18.034;2022-12-10T09:02:29;100719.56;;;-1.27;100.00
18821;BME280;9539;59.332;18.034;2022-12-10T09:04:56;100718.06;;;-1.43;100.00
18821;BME280;9539;59.332;18.034;2022-12-10T09:07:23;100726.53;;;-1.29;100.00
18821;BME280;9539;59.332;18.034;2022-12-10T09:09:49;100722.97;;;-1.23;100.00
18821;BME280;9539;59.332;18.034;2022-12-10T09:12:18;100718.84;;;-1.38;100.00
18821;BME280;9539;59.332;18.034;2022-12-10T09:14:45;100718.88;;;-1.42;100.00
18821;BME280;9539;59.332;18.034;2022-12-10T09:17:12;100724.84;;;-1.31;100.00
18821;BME280;9539;59.332;18.034;2022-12-10T09:19:38;100718.69;;;-1.24;100.00
18821;BME280;9539;59.332;18.034;2022-12-10T09:22:05;100720.28;;;-1.15;100.00
18821;BME280;9539;59.332;18.034;2022-12-10T09:24:32;100712.53;;;-1.18;100.00
18821;BME280;9539;59.332;18.034;2022-12-10T09:26:59;100715.13;;;-1.17;100.00
18821;BME280;9539;59.332;18.034;2022-12-10T09:29:28;100725.56;;;-1.22;100.00
18821;BME280;9539;59.332;18.034;2022-12-10T09:31:54;100721.16;;;-1.15;100.00
18821;BME280;9539;59.332;18.034;2022-12-10T09:34:21;100722.16;;;-1.25;100.00
18821;BME280;9539;59.332;18.034;2022-12-10T09:36:48;100711.75;;;-1.25;100.00
18821;BME280;9539;59.332;18.034;2022-12-10T09:39:15;100723.84;;;-1.21;100.00
18821;BME280;9539;59.332;18.034;2022-12-10T09:41:56;100734.41;;;-1.32;100.00
18821;BME280;9539;59.332;18.034;2022-12-10T09:44:36;100737.78;;;-1.25;100.00
18821;BME280;9539;59.332;18.034;2022-12-10T09:47:09;100730.06;;;-1.33;100.00
18821;BME280;9539;59.332;18.034;2022-12-10T09:49:48;100733.44;;;-1.26;100.00
18821;BME280;9539;59.332;18.034;2022-12-10T09:52:21;100729.81;;;-1.14;100.00
18821;BME280;9539;59.332;18.034;2022-12-10T09:54:53;100735.19;;;-1.28;100.00
18821;BME280;9539;59.332;18.034;2022-12-10T09:57:22;100739.53;;;-1.27;100.00
18821;BME280;9539;59.332;18.034;2022-12-10T09:59:52;100731.63;;;-1.19;100.00
18821;BME280;9539;59.332;18.034;2022-12-10T10:02:23;100735.91;;;-1.15;100.00
18821;BME280;9539;59.332;18.034;2022-12-10T10:04:54;100739.53;;;-1.27;100.00
18821;BME280;9539;59.332;18.034;2022-12-10T10:07:24;100732.22;;;-0.98;100.00
18821;BME280;9539;59.332;18.034;2022-12-10T10:09:55;100729.66;;;-1.02;100.00
18821;BME280;9539;59.332;18.034;2022-12-10T10:12:25;100735.72;;;-1.02;100.00
18821;BME280;9539;59.332;18.034;2022-12-10T10:14:54;100733.41;;;-1.23;100.00
18821;BME280;9539;59.332;18.034;2022-12-10T10:17:23;100736.84;;;-1.21;100.00
18821;BME280;9539;59.332;18.034;2022-12-10T10:19:54;100736.94;;;-1.27;100.00
18821;BME280;9539;59.332;18.034;2022-12-10T10:22:20;100739.44;;;-1.21;100.00
18821;BME280;9539;59.332;18.034;2022-12-10T10:24:47;100743.09;;;-1.34;100.00
18821;BME280;9539;59.332;18.034;2022-12-10T10:27:15;100741.75;;;-0.98;100.00
18821;BME280;9539;59.332;18.034;2022-12-10T10:29:43;100747.78;;;-0.96;100.00
18821;BME280;9539;59.332;18.034;2022-12-10T10:32:14;100747.88;;;-1.01;100.00
18821;BME280;9539;59.332;18.034;2022-12-10T10:34:43;100741.09;;;-1.12;100.00
18821;BME280;9539;59.332;18.034;2022-12-10T10:37:15;100740.94;;;-1.03;100.00
18821;BME280;9539;59.332;18.034;2022-12-10T10:39:46;100730.47;;;-0.97;100.00
18821;BME280;9539;59.332;18.034;2022-12-10T10:42:25;100734.75;;;-0.95;100.00
18821;BME280;9539;59.332;18.034;2022-12-10T10:44:53;100739.44;;;-1.19;100.00
18821;BME280;9539;59.332;18.034;2022-12-10T10:47:27;100734.25;;;-1.23;100.00
18821;BME280;9539;59.332;18.034;2022-12-10T10:49:54;100736.66;;;-1.07;100.00
18821;BME280;9539;59.332;18.034;2022-12-10T10:52:22;100730.78;;;-1.23;100.00
18821;BME280;9539;59.332;18.034;2022-12-10T10:54:49;100732.25;;;-1.01;100.00
18821;BME280;9539;59.332;18.034;2022-12-10T10:57:22;100728.66;;;-0.94;100.00
18821;BME280;9539;59.332;18.034;2022-12-10T10:59:51;100739.44;;;-1.18;100.00
18821;BME280;9539;59.332;18.034;2022-12-10T11:02:22;100732.53;;;-1.22;100.00
18821;BME280;9539;59.332;18.034;2022-12-10T11:04:53;100737.69;;;-1.17;100.00
18821;BME280;9539;59.332;18.034;2022-12-10T11:07:25;100734.31;;;-1.26;100.00
18821;BME280;9539;59.332;18.034;2022-12-10T11:09:53;100732.41;;;-1.11;100.00
18821;BME280;9539;59.332;18.034;2022-12-10T11:12:28;100746.03;;;-0.96;100.00
18821;BME280;9539;59.332;18.034;2022-12-10T11:14:56;100746.03;;;-0.93;100.00
18821;BME280;9539;59.332;18.034;2022-12-10T11:17:24;100747.00;;;-1.00;100.00
18821;BME280;9539;59.332;18.034;2022-12-10T11:19:58;100750.38;;;-0.95;100.00
18821;BME280;9539;59.332;18.034;2022-12-10T11:22:28;100746.28;;;-1.11;100.00
18821;BME280;9539;59.332;18.034;2022-12-10T11:24:55;100753.06;;;-0.99;100.00
18821;BME280;9539;59.332;18.034;2022-12-10T11:27:36;100748.78;;;-1.05;100.00
18821;BME280;9539;59.332;18.034;2022-12-10T11:30:09;100756.81;;;-1.20;100.00
18821;BME280;9539;59.332;18.034;2022-12-10T11:32:55;100755.94;;;-1.19;100.00
18821;BME280;9539;59.332;18.034;2022-12-10T11:35:36;100748.91;;;-1.12;100.00
18821;BME280;9539;59.332;18.034;2022-12-10T11:38:15;100748.09;;;-1.17;100.00
18821;BME280;9539;59.332;18.034;2022-12-10T11:40:47;100758.34;;;-1.04;100.00
18821;BME280;9539;59.332;18.034;2022-12-10T11:46:44;100752.97;;;-0.95;100.00
18821;BME280;9539;59.332;18.034;2022-12-10T11:49:23;100757.22;;;-0.86;100.00
18821;BME280;9539;59.332;18.034;2022-12-10T11:51:59;100751.53;;;-1.15;100.00
18821;BME280;9539;59.332;18.034;2022-12-10T11:54:42;100742.94;;;-1.22;100.00
18821;BME280;9539;59.332;18.034;2022-12-10T11:57:18;100746.13;;;-1.02;100.00
18821;BME280;9539;59.332;18.034;2022-12-10T11:59:55;100742.63;;;-0.98;100.00
18821;BME280;9539;59.332;18.034;2022-12-10T12:02:41;100742.38;;;-0.83;100.00
18821;BME280;9539;59.332;18.034;2022-12-10T12:05:24;100739.94;;;-0.92;100.00
18821;BME280;9539;59.332;18.034;2022-12-10T12:08:03;100740.78;;;-0.91;100.00
18821;BME280;9539;59.332;18.034;2022-12-10T12:11:02;100743.34;;;-0.90;100.00
18821;BME280;9539;59.332;18.034;2022-12-10T12:13:36;100744.19;;;-0.85;100.00
18821;BME280;9539;59.332;18.034;2022-12-10T12:16:11;100748.03;;;-1.11;100.00
18821;BME280;9539;59.332;18.034;2022-12-10T12:18:43;100745.50;;;-1.17;100.00
18821;BME280;9539;59.332;18.034;2022-12-10T12:21:14;100754.09;;;-1.12;100.00
18821;BME280;9539;59.332;18.034;2022-12-10T12:23:48;100753.94;;;-1.00;100.00
18821;BME280;9539;59.332;18.034;2022-12-10T12:26:20;100753.69;;;-0.82;100.00
18821;BME280;9539;59.332;18.034;2022-12-10T12:28:53;100754.56;;;-0.83;100.00
18821;BME280;9539;59.332;18.034;2022-12-10T12:31:26;100755.38;;;-0.79;100.00
18821;BME280;9539;59.332;18.034;2022-12-10T12:33:59;100755.66;;;-0.98;100.00
18821;BME280;9539;59.332;18.034;2022-12-10T12:36:30;100754.31;;;-0.66;100.00
18821;BME280;9539;59.332;18.034;2022-12-10T12:39:05;100760.50;;;-0.73;100.00
18821;BME280;9539;59.332;18.034;2022-12-10T12:41:40;100756.25;;;-0.81;100.00
18821;BME280;9539;59.332;18.034;2022-12-10T12:44:15;100741.44;;;-0.77;100.00
18821;BME280;9539;59.332;18.034;2022-12-10T12:46:45;100761.25;;;-0.65;100.00
18821;BME280;9539;59.332;18.034;2022-12-10T12:49:18;100753.19;;;-0.50;100.00
18821;BME280;9539;59.332;18.034;2022-12-10T12:51:51;100755.88;;;-0.53;100.00
18821;BME280;9539;59.332;18.034;2022-12-10T12:54:20;100749.78;;;-0.54;100.00
18821;BME280;9539;59.332;18.034;2022-12-10T12:56:55;100757.72;;;-0.63;100.00